createdAt,value
2019-03-11T00:02:31.704Z,54.61
2019-03-11T00:07:36.281Z,54.32
2019-03-11T00:12:40.675Z,54.68
2019-03-11T00:17:45.012Z,54.95
2019-03-11T00:22:49.320Z,55.13
2019-03-11T00:27:53.731Z,55.13
2019-03-11T00:32:58.205Z,55.18
2019-03-11T00:38:02.494Z,54.38
2019-03-11T00:43:06.783Z,55.24
2019-03-11T00:48:11.173Z,55.24
2019-03-11T00:53:15.580Z,54.69
2019-03-11T00:58:21.221Z,54.62
2019-03-11T01:03:25.451Z,54.54
2019-03-11T01:08:29.750Z,54.54
2019-03-11T01:13:33.972Z,55.46
2019-03-11T01:18:38.172Z,54.96
2019-03-11T01:23:42.408Z,54.91
2019-03-11T01:28:46.564Z,55.09
2019-03-11T01:33:50.730Z,54.67
2019-03-11T01:38:54.962Z,54.77
2019-03-11T01:43:59.126Z,55.36
2019-03-11T01:49:03.250Z,55.53
2019-03-11T01:54:07.363Z,55.31
2019-03-11T01:59:11.394Z,55.42
2019-03-11T02:04:15.538Z,55.42
2019-03-11T02:09:19.731Z,55.47
2019-03-11T02:14:23.902Z,55.47
2019-03-11T02:19:27.932Z,55.33
2019-03-11T02:24:31.948Z,55.39
2019-03-11T02:29:36.226Z,55.39
2019-03-11T02:34:40.304Z,55.28
2019-03-11T02:39:44.362Z,55.28
2019-03-11T02:44:48.508Z,55.58
2019-03-11T02:49:52.633Z,55.45
2019-03-11T02:54:56.736Z,55.77
2019-03-11T03:00:00.840Z,55.98
2019-03-11T03:05:12.858Z,55.74
2019-03-11T03:10:17.020Z,56.49
2019-03-11T03:15:21.055Z,56.21
2019-03-11T03:20:25.072Z,55.75
2019-03-11T03:25:34.333Z,56.03
2019-03-11T03:30:35.005Z,56.03
2019-03-11T03:35:39.124Z,56.38
2019-03-11T03:40:43.172Z,56.38
2019-03-11T03:45:47.298Z,56.54
2019-03-11T03:50:51.331Z,56.51
2019-03-11T03:55:55.334Z,57.04
2019-03-11T04:00:59.420Z,57.15
2019-03-11T04:06:03.507Z,57.20
2019-03-11T04:11:07.698Z,56.85
2019-03-11T04:16:11.909Z,56.85
2019-03-11T04:21:16.049Z,57.33
2019-03-11T04:26:20.305Z,57.33
2019-03-11T04:31:24.403Z,57.40
2019-03-11T04:36:28.494Z,57.42
2019-03-11T04:41:32.526Z,57.83
2019-03-11T04:46:36.686Z,58.14
2019-03-11T04:51:40.987Z,58.28
2019-03-11T04:56:45.286Z,58.39
2019-03-11T05:01:49.479Z,58.38
2019-03-11T05:06:53.593Z,58.22
2019-03-11T05:11:57.826Z,58.95
2019-03-11T05:17:01.930Z,59.18
2019-03-11T05:22:06.131Z,59.18
2019-03-11T05:27:10.131Z,58.94
2019-03-11T05:32:14.153Z,59.10
2019-03-11T05:37:18.297Z,59.59
2019-03-11T05:42:22.381Z,58.96
2019-03-11T05:47:26.571Z,58.96
2019-03-11T05:52:30.632Z,59.48
2019-03-11T05:57:34.621Z,59.42
2019-03-11T06:02:38.734Z,59.74
2019-03-11T06:07:42.925Z,59.76
2019-03-11T06:12:47.099Z,59.60
2019-03-11T06:17:51.305Z,59.50
2019-03-11T06:22:55.745Z,59.50
2019-03-11T06:27:59.825Z,59.66
2019-03-11T06:33:03.921Z,59.82
2019-03-11T06:38:08.008Z,59.86
2019-03-11T06:43:12.033Z,59.86
2019-03-11T06:48:16.040Z,59.54
2019-03-11T06:53:20.059Z,59.54
2019-03-11T06:58:24.060Z,59.21
2019-03-11T07:03:28.081Z,59.39
2019-03-11T07:08:32.083Z,59.26
2019-03-11T07:13:36.165Z,59.25
2019-03-11T07:18:40.172Z,59.25
2019-03-11T07:23:44.245Z,58.95
2019-03-11T07:28:48.239Z,58.88
2019-03-11T07:33:52.323Z,59.07
2019-03-11T07:38:56.316Z,59.09
2019-03-11T07:44:00.323Z,59.09
2019-03-11T07:49:04.454Z,59.64
2019-03-11T07:54:08.536Z,59.64
2019-03-11T07:59:12.540Z,60.03
2019-03-11T08:04:16.644Z,60.03
2019-03-11T08:09:20.925Z,60.60
2019-03-11T08:14:24.954Z,61.00
2019-03-11T08:19:29.010Z,60.20
2019-03-11T08:24:33.047Z,60.44
2019-03-11T08:29:37.089Z,59.79
2019-03-11T08:34:41.137Z,59.79
2019-03-11T08:39:45.185Z,60.53
2019-03-11T08:44:49.581Z,60.24
2019-03-11T08:49:53.802Z,60.24
2019-03-11T08:54:58.084Z,59.69
2019-03-11T09:00:02.316Z,59.69
2019-03-11T09:05:07.984Z,60.44
2019-03-11T09:10:13.433Z,60.19
2019-03-11T09:15:17.670Z,60.19
2019-03-11T09:20:21.840Z,59.64
2019-03-11T09:25:26.103Z,59.10
2019-03-11T09:30:30.236Z,59.16
2019-03-11T09:35:34.430Z,60.02
2019-03-11T09:40:38.473Z,60.02
2019-03-11T09:45:42.496Z,59.23
2019-03-11T09:50:46.602Z,60.43
2019-03-11T09:55:50.695Z,59.56
2019-03-11T10:00:54.738Z,60.25
2019-03-11T10:05:58.763Z,60.25
2019-03-11T10:11:02.788Z,59.77
2019-03-11T10:16:06.978Z,59.08
2019-03-11T10:21:11.059Z,60.15
2019-03-11T10:26:15.198Z,60.15
2019-03-11T10:31:19.218Z,59.33
2019-03-11T10:36:23.249Z,59.33
2019-03-11T10:41:27.344Z,59.00
2019-03-11T10:46:31.479Z,60.38
2019-03-11T10:51:35.564Z,60.10
2019-03-11T10:56:39.597Z,59.62
2019-03-11T11:01:43.698Z,59.80
2019-03-11T11:06:47.825Z,60.21
2019-03-11T11:11:52.130Z,60.21
2019-03-11T11:16:56.150Z,59.80
2019-03-11T11:22:00.206Z,59.24
2019-03-11T11:27:04.327Z,59.24
2019-03-11T11:32:08.675Z,59.13
2019-03-11T11:37:12.699Z,60.74
2019-03-11T11:42:16.703Z,59.65
2019-03-11T11:47:20.730Z,59.32
2019-03-11T11:52:24.847Z,59.32
2019-03-11T11:57:28.961Z,57.91
2019-03-11T12:02:33.070Z,57.59
2019-03-11T12:07:37.085Z,57.59
2019-03-11T12:12:41.104Z,57.50
2019-03-11T12:17:45.202Z,57.50
2019-03-11T12:22:49.349Z,57.88
2019-03-11T12:27:54.751Z,58.16
2019-03-11T12:32:59.190Z,56.67
2019-03-11T12:38:03.414Z,52.85
2019-03-11T12:43:07.646Z,52.85
2019-03-11T12:48:12.008Z,50.55
2019-03-11T12:53:16.350Z,50.55
2019-03-11T12:58:20.600Z,45.45
2019-03-11T13:03:26.696Z,45.45
2019-03-11T13:08:34.319Z,44.86
2019-03-11T13:13:38.330Z,45.64
2019-03-11T13:18:44.038Z,45.75
2019-03-11T13:23:48.077Z,45.75
2019-03-11T13:28:52.069Z,48.71
2019-03-11T13:33:56.189Z,48.71
2019-03-11T13:39:00.287Z,51.47
2019-03-11T13:44:04.377Z,52.98
2019-03-11T13:49:08.464Z,54.61
2019-03-11T13:54:12.489Z,53.66
2019-03-11T13:59:16.593Z,54.94
2019-03-11T14:04:21.070Z,53.33
2019-03-11T14:09:25.460Z,53.12
2019-03-11T14:14:50.121Z,45.91
2019-03-11T14:19:59.067Z,45.91
2019-03-11T14:25:05.011Z,51.65
2019-03-11T14:30:10.419Z,52.04
2019-03-11T14:35:14.648Z,52.04
2019-03-11T14:40:18.847Z,43.96
2019-03-11T14:45:50.221Z,51.70
2019-03-11T14:50:29.176Z,52.25
2019-03-11T14:55:33.352Z,52.25
2019-03-11T15:00:37.677Z,52.06
2019-03-11T15:05:41.825Z,52.58
2019-03-11T15:10:46.214Z,52.41
2019-03-11T15:15:50.586Z,52.41
2019-03-11T15:20:55.057Z,52.99
2019-03-11T15:25:59.481Z,53.21
2019-03-11T15:31:10.400Z,53.10
2019-03-11T15:36:09.505Z,53.71
2019-03-11T15:46:40.710Z,53.59
2019-03-11T15:51:46.745Z,54.46
2019-03-11T15:57:10.445Z,54.78
2019-03-11T16:02:44.386Z,54.64
2019-03-11T16:36:18.575Z,54.70
2019-03-11T16:46:12.228Z,54.97
2019-03-11T16:51:16.565Z,54.17
2019-03-11T16:56:21.003Z,54.31
2019-03-11T17:01:25.164Z,54.70
2019-03-11T17:06:29.410Z,54.49
2019-03-11T17:11:33.814Z,53.34
2019-03-11T17:16:38.174Z,53.09
2019-03-11T17:21:42.386Z,53.09
2019-03-11T17:26:46.572Z,55.71
2019-03-11T17:31:50.711Z,57.07
2019-03-11T17:36:54.871Z,57.11
2019-03-11T17:41:59.010Z,57.04
2019-03-11T17:47:03.239Z,56.65
2019-03-11T17:52:07.523Z,56.32
2019-03-11T17:57:11.717Z,56.09
2019-03-11T18:02:16.136Z,55.12
2019-03-11T18:07:48.760Z,54.58
2019-03-11T18:12:59.972Z,54.17
2019-03-11T18:18:16.882Z,53.66
2019-03-11T18:23:34.972Z,53.99
2019-03-11T18:28:39.374Z,53.84
2019-03-11T19:12:52.287Z,53.26
2019-03-11T19:18:52.344Z,53.26
2019-03-11T19:24:07.239Z,53.52
2019-03-11T19:29:39.964Z,53.67
2019-03-11T19:40:41.646Z,52.72
2019-03-11T19:45:48.131Z,52.78
2019-03-11T20:45:28.750Z,53.98
2019-03-11T21:35:20.698Z,55.24
2019-03-11T21:52:21.780Z,55.56
2019-03-11T21:57:38.041Z,55.33
2019-03-11T22:02:48.116Z,56.00
2019-03-11T22:07:52.816Z,56.00
2019-03-11T22:13:09.542Z,55.44
2019-03-11T22:18:23.910Z,55.44
2019-03-11T22:30:34.663Z,55.75
2019-03-11T22:35:44.882Z,55.90
2019-03-11T22:51:38.923Z,55.81
2019-03-11T23:47:22.005Z,56.35
2019-03-11T23:52:26.927Z,56.61
2019-03-11T23:57:31.715Z,56.86
